createdAt,value
2018-08-30T00:00:45.572Z,66.36
2018-08-30T00:03:16.718Z,65.54
2018-08-30T00:05:47.703Z,63.10
2018-08-30T00:08:18.659Z,62.35
2018-08-30T00:10:49.107Z,62.66
2018-08-30T00:13:20.349Z,61.78
2018-08-30T00:15:50.467Z,62.99
2018-08-30T00:18:21.685Z,63.62
2018-08-30T00:20:53.375Z,63.02
2018-08-30T00:23:23.766Z,63.00
2018-08-30T00:25:54.827Z,63.35
2018-08-30T00:28:25.688Z,64.25
2018-08-30T00:30:56.042Z,64.21
2018-08-30T00:33:28.634Z,63.74
2018-08-30T00:36:02.700Z,64.52
2018-08-30T00:38:41.272Z,63.82
2018-08-30T00:41:12.134Z,64.71
2018-08-30T00:43:45.011Z,64.23
2018-08-30T00:46:16.716Z,64.99
2018-08-30T00:48:48.946Z,65.32
2018-08-30T00:51:21.688Z,65.11
2018-08-30T00:53:53.306Z,64.46
2018-08-30T00:56:23.326Z,65.38
2018-08-30T00:58:53.388Z,65.57
2018-08-30T01:01:23.578Z,67.95
2018-08-30T01:03:54.379Z,67.95
2018-08-30T01:06:25.014Z,69.00
2018-08-30T01:08:56.443Z,70.02
2018-08-30T01:11:26.465Z,71.94
2018-08-30T01:13:57.116Z,74.40
2018-08-30T01:16:28.112Z,79.03
2018-08-30T01:18:58.273Z,82.71
2018-08-30T01:21:30.177Z,83.87
2018-08-30T01:24:01.198Z,84.86
2018-08-30T01:26:31.276Z,85.92
2018-08-30T01:29:01.318Z,87.27
2018-08-30T01:31:33.081Z,86.83
2018-08-30T01:34:03.209Z,88.00
2018-08-30T01:36:35.418Z,88.52
2018-08-30T01:39:07.896Z,88.24
2018-08-30T01:41:38.915Z,88.99
2018-08-30T01:44:10.172Z,89.00
2018-08-30T01:46:40.755Z,89.01
2018-08-30T01:49:33.056Z,88.60
2018-08-30T01:52:03.205Z,88.60
2018-08-30T01:54:33.839Z,88.28
2018-08-30T01:57:04.371Z,88.45
2018-08-30T01:59:35.682Z,88.66
2018-08-30T02:02:12.411Z,88.31
2018-08-30T02:04:43.453Z,88.21
2018-08-30T02:07:14.103Z,88.45
2018-08-30T02:09:44.633Z,88.09
2018-08-30T02:12:15.917Z,88.16
2018-08-30T02:14:46.043Z,87.40
2018-08-30T02:17:17.655Z,87.35
2018-08-30T02:19:47.753Z,87.77
2018-08-30T02:22:18.775Z,87.08
2018-08-30T02:24:50.013Z,87.45
2018-08-30T02:27:20.413Z,86.75
2018-08-30T02:29:51.667Z,87.59
2018-08-30T02:32:21.689Z,87.37
2018-08-30T02:34:52.547Z,86.88
2018-08-30T02:38:26.423Z,87.09
2018-08-30T02:40:57.191Z,87.35
2018-08-30T02:43:27.244Z,86.48
2018-08-30T02:45:58.160Z,87.42
2018-08-30T02:48:29.096Z,86.94
2018-08-30T02:50:59.702Z,87.54
2018-08-30T02:53:30.927Z,87.28
2018-08-30T02:56:02.092Z,87.56
2018-08-30T02:58:33.819Z,86.29
2018-08-30T03:01:04.236Z,86.58
2018-08-30T03:03:34.557Z,86.88
2018-08-30T03:06:04.783Z,86.82
2018-08-30T03:08:35.190Z,86.94
2018-08-30T03:11:06.634Z,87.79
2018-08-30T03:13:36.703Z,88.57
2018-08-30T03:16:08.483Z,88.52
2018-08-30T03:18:38.611Z,88.03
2018-08-30T03:21:09.966Z,86.94
2018-08-30T03:23:41.005Z,86.57
2018-08-30T03:26:11.287Z,87.64
2018-08-30T03:28:42.982Z,86.57
2018-08-30T03:31:14.336Z,87.40
2018-08-30T03:33:44.419Z,86.82
2018-08-30T03:36:14.776Z,86.67
2018-08-30T03:38:46.539Z,86.39
2018-08-30T03:41:18.118Z,86.24
2018-08-30T03:43:50.869Z,86.45
2018-08-30T03:46:20.898Z,86.88
2018-08-30T03:48:51.005Z,86.36
2018-08-30T03:51:21.564Z,86.47
2018-08-30T03:53:52.582Z,87.37
2018-08-30T03:56:22.626Z,87.01
2018-08-30T03:58:53.792Z,87.71
2018-08-30T04:01:24.199Z,87.55
2018-08-30T04:03:56.075Z,86.96
2018-08-30T04:06:26.730Z,86.50
2018-08-30T04:08:57.885Z,86.50
2018-08-30T04:11:30.145Z,86.69
2018-08-30T04:14:00.788Z,87.13
2018-08-30T04:16:32.118Z,87.42
2018-08-30T04:19:11.144Z,85.96
2018-08-30T04:21:41.475Z,86.37
2018-08-30T04:24:12.248Z,86.08
2018-08-30T04:26:44.057Z,86.09
2018-08-30T04:29:14.085Z,86.55
2018-08-30T04:31:45.684Z,85.46
2018-08-30T04:34:16.738Z,85.65
2018-08-30T04:36:48.720Z,85.65
2018-08-30T04:39:20.088Z,84.82
2018-08-30T04:41:50.570Z,85.22
2018-08-30T04:44:21.149Z,84.53
2018-08-30T04:46:53.263Z,83.61
2018-08-30T04:49:24.282Z,83.77
2018-08-30T04:51:54.530Z,85.00
2018-08-30T04:54:25.086Z,84.68
2018-08-30T04:56:55.240Z,84.46
2018-08-30T04:59:26.026Z,85.03
2018-08-30T05:01:58.459Z,83.93
2018-08-30T05:04:30.248Z,82.94
2018-08-30T05:07:00.772Z,82.65
2018-08-30T05:09:30.909Z,81.95
2018-08-30T05:12:02.548Z,82.96
2018-08-30T05:14:33.336Z,82.31
2018-08-30T05:17:05.191Z,81.10
2018-08-30T05:19:36.526Z,80.97
2018-08-30T05:22:06.824Z,81.12
2018-08-30T05:24:38.086Z,81.38
2018-08-30T05:27:10.460Z,80.05
2018-08-30T05:29:40.718Z,79.37
2018-08-30T05:32:10.924Z,78.26
2018-08-30T05:34:41.429Z,78.56
2018-08-30T05:37:12.860Z,79.29
2018-08-30T05:39:43.016Z,79.17
2018-08-30T05:42:14.562Z,79.93
2018-08-30T05:44:47.038Z,78.85
2018-08-30T05:47:18.436Z,78.85
2018-08-30T05:49:53.590Z,78.64
2018-08-30T05:52:25.212Z,77.31
2018-08-30T05:54:56.028Z,77.80
2018-08-30T05:57:28.315Z,77.87
2018-08-30T06:00:01.096Z,76.75
2018-08-30T06:02:32.008Z,76.95
2018-08-30T06:05:02.959Z,75.86
2018-08-30T06:07:33.769Z,75.18
2018-08-30T06:10:06.944Z,74.24
2018-08-30T06:12:38.313Z,73.54
2018-08-30T06:15:13.864Z,74.28
2018-08-30T06:17:44.141Z,74.50
2018-08-30T06:20:15.237Z,73.98
2018-08-30T06:22:45.795Z,73.60
2018-08-30T06:25:16.977Z,73.53
2018-08-30T06:27:48.059Z,73.01
2018-08-30T06:30:20.140Z,72.41
2018-08-30T06:32:50.229Z,72.85
2018-08-30T06:35:21.311Z,73.10
2018-08-30T06:37:52.200Z,73.04
2018-08-30T06:40:23.723Z,71.41
2018-08-30T06:42:53.902Z,71.48
2018-08-30T06:45:25.894Z,70.38
2018-08-30T06:47:57.639Z,70.42
2018-08-30T06:50:28.355Z,71.19
2018-08-30T06:52:59.992Z,70.05
2018-08-30T06:55:31.245Z,69.78
2018-08-30T06:58:04.283Z,70.68
2018-08-30T07:00:35.601Z,70.09
2018-08-30T07:03:08.303Z,69.96
2018-08-30T07:05:39.015Z,71.58
2018-08-30T07:08:10.314Z,71.82
2018-08-30T07:10:41.739Z,72.15
2018-08-30T07:13:13.467Z,70.88
2018-08-30T07:15:45.332Z,70.29
2018-08-30T07:18:17.825Z,71.61
2018-08-30T07:20:49.917Z,71.37
2018-08-30T07:23:20.636Z,70.71
2018-08-30T07:25:51.684Z,70.70
2018-08-30T07:28:22.184Z,70.13
2018-08-30T07:30:53.872Z,69.80
2018-08-30T07:33:24.722Z,69.26
2018-08-30T07:35:54.918Z,70.17
2018-08-30T07:38:25.914Z,68.61
2018-08-30T07:40:56.037Z,68.34
2018-08-30T07:43:26.178Z,67.61
2018-08-30T07:45:56.269Z,67.92
2018-08-30T07:48:26.940Z,68.51
2018-08-30T07:50:58.830Z,69.32
2018-08-30T07:53:30.519Z,69.99
2018-08-30T07:56:04.371Z,71.21
2018-08-30T07:58:35.000Z,70.54
2018-08-30T08:01:06.118Z,69.28
2018-08-30T08:03:37.145Z,68.86
2018-08-30T08:06:08.559Z,67.80
2018-08-30T08:08:39.474Z,69.17
2018-08-30T08:11:09.999Z,69.41
2018-08-30T08:13:40.486Z,69.55
2018-08-30T08:16:11.539Z,69.24
2018-08-30T08:18:41.791Z,70.07
2018-08-30T08:21:13.188Z,70.10
2018-08-30T08:23:44.326Z,70.19
2018-08-30T08:26:15.999Z,69.41
2018-08-30T08:28:46.872Z,67.46
2018-08-30T08:31:18.906Z,67.65
2018-08-30T08:33:49.988Z,67.49
2018-08-30T08:36:21.259Z,67.15
2018-08-30T08:38:52.874Z,66.87
2018-08-30T08:41:24.240Z,66.75
2018-08-30T08:43:55.966Z,65.44
2018-08-30T08:46:27.714Z,65.30
2018-08-30T08:48:58.598Z,64.60
2018-08-30T08:51:29.360Z,60.54
2018-08-30T08:54:01.438Z,59.41
2018-08-30T08:56:33.245Z,58.28
2018-08-30T08:59:05.113Z,59.17
2018-08-30T09:01:35.536Z,59.76
2018-08-30T09:04:06.237Z,59.99
2018-08-30T09:06:36.876Z,61.51
2018-08-30T09:09:11.104Z,60.72
2018-08-30T09:11:41.973Z,59.77
2018-08-30T09:14:12.383Z,55.83
2018-08-30T09:16:43.172Z,54.60
2018-08-30T09:19:14.048Z,55.24
2018-08-30T09:21:44.606Z,53.79
2018-08-30T09:24:15.344Z,52.65
2018-08-30T09:26:45.564Z,53.35
2018-08-30T09:29:15.888Z,55.12
2018-08-30T09:31:46.465Z,57.10
2018-08-30T09:34:18.353Z,59.55
2018-08-30T09:36:48.981Z,59.87
2018-08-30T09:39:19.353Z,60.52
2018-08-30T09:41:50.151Z,60.07
2018-08-30T09:44:20.237Z,58.83
2018-08-30T09:46:50.296Z,58.48
2018-08-30T09:49:20.525Z,57.15
2018-08-30T09:51:51.596Z,57.03
2018-08-30T09:54:21.925Z,57.21
2018-08-30T09:56:52.216Z,57.02
2018-08-30T09:59:22.849Z,56.14
2018-08-30T10:01:59.122Z,54.43
2018-08-30T10:04:29.806Z,50.83
2018-08-30T10:07:00.805Z,48.89
2018-08-30T10:09:32.655Z,47.98
2018-08-30T10:12:02.736Z,44.42
2018-08-30T10:14:33.666Z,43.66
2018-08-30T10:17:05.753Z,44.98
2018-08-30T10:19:36.521Z,44.89
2018-08-30T10:22:10.045Z,43.95
2018-08-30T10:24:41.252Z,44.18
2018-08-30T10:27:12.533Z,46.06
2018-08-30T10:29:43.907Z,50.02
2018-08-30T10:32:16.943Z,53.42
2018-08-30T10:34:49.191Z,53.83
2018-08-30T10:37:19.911Z,53.82
2018-08-30T10:39:50.708Z,54.35
2018-08-30T10:42:23.667Z,56.01
2018-08-30T10:44:56.482Z,57.74
2018-08-30T10:47:27.713Z,57.45
2018-08-30T10:49:58.402Z,58.86
2018-08-30T10:52:30.276Z,57.90
2018-08-30T10:55:01.620Z,56.78
2018-08-30T10:57:32.404Z,57.71
2018-08-30T11:00:03.257Z,56.16
2018-08-30T11:02:33.486Z,54.65
2018-08-30T11:05:03.663Z,52.44
2018-08-30T11:07:33.881Z,52.11
2018-08-30T11:10:04.186Z,52.71
2018-08-30T11:12:35.965Z,53.91
2018-08-30T11:15:06.319Z,55.46
2018-08-30T11:17:38.935Z,55.56
2018-08-30T11:20:09.941Z,55.74
2018-08-30T11:22:39.955Z,56.52
2018-08-30T11:25:10.127Z,56.23
2018-08-30T11:27:40.290Z,54.60
2018-08-30T11:30:10.340Z,55.60
2018-08-30T11:32:42.050Z,54.96
2018-08-30T11:35:13.558Z,55.49
2018-08-30T11:37:43.666Z,57.57
2018-08-30T11:40:15.151Z,58.03
2018-08-30T11:42:46.501Z,59.79
2018-08-30T11:45:17.987Z,59.52
2018-08-30T11:47:48.085Z,60.65
2018-08-30T11:50:19.276Z,60.16
2018-08-30T11:52:50.794Z,60.22
2018-08-30T11:55:22.835Z,60.45
2018-08-30T11:57:54.647Z,60.82
2018-08-30T12:00:30.631Z,60.22
2018-08-30T12:03:01.712Z,60.62
2018-08-30T12:05:34.599Z,61.03
2018-08-30T12:08:05.822Z,61.64
2018-08-30T12:10:37.457Z,60.49
2018-08-30T12:13:08.522Z,60.88
2018-08-30T12:15:39.751Z,60.35
2018-08-30T12:18:09.955Z,59.99
2018-08-30T12:20:41.582Z,59.28
2018-08-30T12:23:12.198Z,58.46
2018-08-30T12:25:42.408Z,58.73
2018-08-30T12:28:13.934Z,58.29
2018-08-30T12:30:44.397Z,57.88
2018-08-30T12:33:14.525Z,58.66
2018-08-30T12:35:45.763Z,56.42
2018-08-30T12:38:16.035Z,48.29
2018-08-30T12:40:46.182Z,43.20
2018-08-30T12:43:17.725Z,41.62
2018-08-30T12:45:49.368Z,40.44
2018-08-30T12:48:19.418Z,39.21
2018-08-30T12:50:50.340Z,39.86
2018-08-30T12:53:22.391Z,40.68
2018-08-30T12:55:53.172Z,37.27
2018-08-30T12:58:24.342Z,35.31
2018-08-30T13:00:54.914Z,34.23
2018-08-30T13:03:25.899Z,36.94
2018-08-30T13:05:59.086Z,37.68
2018-08-30T13:08:30.671Z,34.89
2018-08-30T13:11:03.225Z,37.54
2018-08-30T13:13:35.130Z,39.91
2018-08-30T13:16:07.456Z,41.63
2018-08-30T13:18:38.195Z,42.56
2018-08-30T13:21:09.172Z,43.56
2018-08-30T13:23:41.533Z,45.02
2018-08-30T13:26:12.373Z,41.96
2018-08-30T13:28:43.711Z,39.65
2018-08-30T13:31:15.414Z,38.34
2018-08-30T13:33:46.478Z,35.53
2018-08-30T13:36:16.996Z,37.15
2018-08-30T13:38:48.995Z,39.67
2018-08-30T13:41:19.833Z,38.87
2018-08-30T13:43:50.607Z,37.03
2018-08-30T13:46:21.818Z,35.39
2018-08-30T13:48:52.394Z,33.75
2018-08-30T13:51:24.400Z,32.58
2018-08-30T13:53:55.007Z,31.51
2018-08-30T13:56:25.904Z,34.10
2018-08-30T13:58:56.365Z,32.35
2018-08-30T14:01:26.962Z,30.12
2018-08-30T14:03:57.044Z,32.09
2018-08-30T14:06:27.428Z,30.92
2018-08-30T14:08:58.849Z,31.14
2018-08-30T14:11:30.522Z,31.64
2018-08-30T14:14:00.994Z,32.15
2018-08-30T14:16:30.977Z,30.06
2018-08-30T14:19:01.214Z,32.49
2018-08-30T14:21:32.624Z,33.74
2018-08-30T14:24:02.872Z,35.86
2018-08-30T14:26:33.025Z,37.57
2018-08-30T14:29:03.094Z,38.79
2018-08-30T14:31:33.278Z,39.77
2018-08-30T14:34:04.641Z,41.70
2018-08-30T14:36:36.540Z,42.16
2018-08-30T14:39:10.098Z,41.99
2018-08-30T14:41:41.383Z,41.91
2018-08-30T14:44:11.558Z,40.93
2018-08-30T14:46:42.838Z,42.05
2018-08-30T14:49:12.942Z,42.45
2018-08-30T14:51:44.867Z,42.24
2018-08-30T14:54:15.526Z,42.70
2018-08-30T14:56:46.049Z,41.74
2018-08-30T14:59:16.830Z,42.28
2018-08-30T15:01:47.089Z,40.71
2018-08-30T15:04:16.981Z,39.59
2018-08-30T15:06:47.376Z,38.33
2018-08-30T15:09:18.161Z,38.45
2018-08-30T15:11:49.736Z,40.11
2018-08-30T15:14:22.370Z,41.00
2018-08-30T15:16:53.433Z,40.49
2018-08-30T15:19:25.127Z,40.27
2018-08-30T15:21:56.836Z,38.81
2018-08-30T15:24:28.620Z,38.68
2018-08-30T15:27:00.535Z,39.96
2018-08-30T15:29:33.680Z,40.01
2018-08-30T15:32:05.555Z,39.22
2018-08-30T15:34:37.540Z,38.38
2018-08-30T15:37:11.479Z,36.50
2018-08-30T15:39:42.682Z,37.14
2018-08-30T15:42:13.036Z,38.45
2018-08-30T15:44:45.116Z,40.86
2018-08-30T15:47:15.594Z,41.79
2018-08-30T15:49:46.595Z,43.01
2018-08-30T15:52:16.660Z,43.91
2018-08-30T15:54:47.057Z,43.44
2018-08-30T15:57:17.423Z,43.36
2018-08-30T15:59:48.013Z,43.95
2018-08-30T16:02:18.735Z,42.43
2018-08-30T16:04:50.168Z,42.78
2018-08-30T16:07:20.755Z,42.96
2018-08-30T16:09:51.082Z,42.78
2018-08-30T16:12:21.310Z,40.35
2018-08-30T16:14:51.481Z,40.79
2018-08-30T16:17:21.941Z,41.18
2018-08-30T16:19:52.036Z,42.58
2018-08-30T16:22:28.363Z,42.50
2018-08-30T16:24:59.278Z,43.88
2018-08-30T16:27:31.992Z,43.94
2018-08-30T16:30:02.159Z,43.24
2018-08-30T16:32:32.820Z,43.77
2018-08-30T16:35:04.161Z,43.46
2018-08-30T16:37:37.914Z,42.88
2018-08-30T16:40:10.732Z,43.62
2018-08-30T16:42:43.075Z,43.54
2018-08-30T16:45:13.942Z,44.16
2018-08-30T16:47:44.556Z,44.17
2018-08-30T16:50:15.478Z,43.54
2018-08-30T16:52:47.650Z,44.93
2018-08-30T16:55:19.339Z,45.67
2018-08-30T16:57:50.866Z,45.70
2018-08-30T17:00:21.662Z,45.76
2018-08-30T17:02:53.310Z,46.27
2018-08-30T17:05:25.544Z,46.84
2018-08-30T17:07:56.572Z,46.74
2018-08-30T17:10:28.623Z,47.46
2018-08-30T17:12:59.808Z,48.06
2018-08-30T17:15:30.963Z,48.63
2018-08-30T17:18:03.350Z,49.18
2018-08-30T17:20:37.536Z,49.13
2018-08-30T17:23:09.179Z,50.07
2018-08-30T17:25:39.371Z,49.95
2018-08-30T17:28:09.584Z,49.43
2018-08-30T17:30:41.095Z,50.07
2018-08-30T17:33:12.917Z,49.72
2018-08-30T17:35:47.231Z,49.89
2018-08-30T17:38:18.618Z,49.89
2018-08-30T17:40:49.700Z,50.69
2018-08-30T17:43:21.678Z,51.67
2018-08-30T17:45:52.314Z,50.42
2018-08-30T17:48:24.576Z,51.13
2018-08-30T17:50:55.121Z,51.36
2018-08-30T17:53:26.035Z,51.44
2018-08-30T17:55:57.863Z,51.62
2018-08-30T17:58:28.743Z,51.62
2018-08-30T18:00:59.332Z,51.83
2018-08-30T18:03:30.696Z,51.32
2018-08-30T18:06:02.456Z,52.53
2018-08-30T18:08:33.889Z,52.49
2018-08-30T18:11:06.824Z,52.68
2018-08-30T18:13:37.083Z,52.23
2018-08-30T18:16:07.218Z,53.14
2018-08-30T18:18:39.616Z,52.64
2018-08-30T18:21:11.200Z,53.34
2018-08-30T18:23:42.588Z,53.25
2018-08-30T18:26:13.567Z,53.35
2018-08-30T18:28:44.689Z,53.62
2018-08-30T18:31:15.063Z,54.11
2018-08-30T18:33:45.146Z,52.88
2018-08-30T18:36:15.356Z,54.13
2018-08-30T18:38:46.975Z,53.86
2018-08-30T18:41:35.430Z,54.08
2018-08-30T18:44:07.845Z,54.60
2018-08-30T18:47:02.972Z,54.42
2018-08-30T18:49:36.079Z,54.50
2018-08-30T18:52:07.423Z,54.21
2018-08-30T18:54:40.387Z,54.72
2018-08-30T18:57:23.882Z,54.60
2018-08-30T18:59:55.353Z,54.61
2018-08-30T19:02:26.801Z,55.52
2018-08-30T19:04:57.886Z,55.88
2018-08-30T19:07:28.610Z,57.49
2018-08-30T19:09:59.348Z,57.00
2018-08-30T19:12:35.217Z,58.46
2018-08-30T19:15:10.139Z,58.47
2018-08-30T19:17:45.942Z,58.86
2018-08-30T19:20:18.906Z,58.22
2018-08-30T19:22:50.096Z,58.10
2018-08-30T19:25:26.349Z,58.14
2018-08-30T19:27:57.069Z,58.67
2018-08-30T19:30:28.652Z,58.93
2018-08-30T19:32:59.549Z,60.07
2018-08-30T19:35:35.104Z,59.54
2018-08-30T19:38:06.321Z,59.76
2018-08-30T19:40:42.114Z,60.76
2018-08-30T19:43:12.289Z,61.42
2018-08-30T19:45:44.388Z,61.21
2018-08-30T19:48:15.561Z,60.46
2018-08-30T19:50:46.235Z,62.25
2018-08-30T19:53:16.886Z,62.20
2018-08-30T19:55:46.995Z,61.99
2018-08-30T19:58:17.224Z,62.02
2018-08-30T20:00:48.577Z,62.45
2018-08-30T20:03:19.468Z,62.15
2018-08-30T20:05:49.722Z,62.83
2018-08-30T20:08:20.355Z,62.62
2018-08-30T20:10:51.848Z,62.85
2018-08-30T20:13:22.005Z,62.81
2018-08-30T20:15:52.242Z,62.60
2018-08-30T20:18:23.664Z,62.30
2018-08-30T20:20:54.509Z,62.28
2018-08-30T20:23:24.934Z,62.78
2018-08-30T20:25:56.756Z,62.81
2018-08-30T20:28:27.548Z,63.31
2018-08-30T20:30:57.897Z,64.38
2018-08-30T20:33:29.478Z,65.43
2018-08-30T20:36:00.883Z,66.18
2018-08-30T20:38:31.581Z,66.41
2018-08-30T20:41:03.062Z,66.84
2018-08-30T20:43:34.160Z,66.14
2018-08-30T20:46:04.636Z,66.35
2018-08-30T20:48:35.437Z,66.44
2018-08-30T20:51:05.944Z,66.57
2018-08-30T20:53:37.638Z,66.70
2018-08-30T20:56:08.197Z,66.62
2018-08-30T20:58:39.388Z,66.81
2018-08-30T21:01:09.985Z,67.41
2018-08-30T21:03:41.301Z,69.03
2018-08-30T21:06:11.605Z,68.10
2018-08-30T21:08:43.254Z,68.70
2018-08-30T21:11:13.504Z,68.97
2018-08-30T21:13:45.736Z,69.50
2018-08-30T21:16:16.088Z,69.95
2018-08-30T21:18:46.248Z,69.76
2018-08-30T21:21:16.587Z,69.38
2018-08-30T21:23:46.673Z,68.93
2018-08-30T21:26:18.037Z,68.94
2018-08-30T21:28:54.574Z,68.62
2018-08-30T21:31:26.228Z,68.00
2018-08-30T21:33:56.396Z,67.50
2018-08-30T21:36:26.667Z,67.44
2018-08-30T21:38:57.303Z,67.24
2018-08-30T21:41:29.176Z,68.07
2018-08-30T21:44:01.574Z,68.47
2018-08-30T21:46:31.769Z,69.16
2018-08-30T21:49:03.634Z,70.16
2018-08-30T21:51:34.444Z,69.59
2018-08-30T21:54:04.809Z,70.18
2018-08-30T21:56:36.974Z,70.65
2018-08-30T21:59:09.432Z,70.00
2018-08-30T22:01:39.703Z,69.90
2018-08-30T22:04:12.090Z,68.97
2018-08-30T22:06:43.116Z,69.09
2018-08-30T22:09:14.832Z,69.52
2018-08-30T22:11:45.016Z,69.36
2018-08-30T22:14:15.986Z,69.83
2018-08-30T22:16:48.264Z,70.54
2018-08-30T22:19:19.754Z,70.29
2018-08-30T22:21:51.482Z,71.20
2018-08-30T22:24:22.780Z,72.06
2018-08-30T22:26:53.101Z,72.07
2018-08-30T22:29:23.343Z,72.67
2018-08-30T22:31:53.581Z,72.36
2018-08-30T22:34:24.219Z,72.52
2018-08-30T22:36:54.421Z,72.24
2018-08-30T22:39:25.911Z,72.91
2018-08-30T22:41:56.018Z,72.90
2018-08-30T22:44:27.937Z,72.24
2018-08-30T22:46:58.547Z,73.25
2018-08-30T22:49:31.281Z,73.40
2018-08-30T22:52:01.999Z,73.68
2018-08-30T22:54:32.341Z,73.19
2018-08-30T22:57:04.951Z,73.35
2018-08-30T22:59:36.530Z,73.72
2018-08-30T23:02:07.400Z,74.17
2018-08-30T23:04:38.932Z,73.61
2018-08-30T23:07:09.321Z,73.09
2018-08-30T23:09:40.182Z,73.74
2018-08-30T23:12:10.972Z,73.05
2018-08-30T23:14:41.765Z,73.66
2018-08-30T23:17:12.061Z,72.23
2018-08-30T23:19:44.042Z,73.20
2018-08-30T23:22:14.829Z,73.14
2018-08-30T23:24:45.101Z,74.31
2018-08-30T23:27:15.878Z,73.77
2018-08-30T23:29:47.889Z,73.15
2018-08-30T23:32:18.242Z,73.63
2018-08-30T23:34:49.409Z,74.55
2018-08-30T23:37:20.346Z,73.22
2018-08-30T23:39:50.697Z,72.72
2018-08-30T23:42:21.946Z,75.20
2018-08-30T23:44:53.502Z,76.45
2018-08-30T23:47:24.988Z,75.81
2018-08-30T23:49:55.285Z,76.59
2018-08-30T23:52:27.759Z,77.30
2018-08-30T23:54:57.964Z,76.92
2018-08-30T23:57:28.668Z,77.02
